Opelousas, LA (70570)

4:07 AM CST on February 12, 2016 (GMT -0600)
Gulino Street | | Change Station
CLOSE
Current Station
Personal Weather Station
Location: Opelousas, LA
Elevation: 72 ft
Nearby Weather Stations

Elev 72 ft 30.55 °N, 92.07 °W | Updated 3 seconds ago

Fog
Fog
58.5 °F
Feels Like 58.5 °F
N
2.3
Wind Variable Wind from West
Gusts 4.7 mph

Today
High -- | Low -- °F
--% Chance of Precip.
Yesterday
High -- | Low -- °F
Precip. -- in
Pressure 30.18 in
Visibility 0.2 miles
Clouds Overcast 300 ft
Dew Point 57 °F
Humidity 96%
Rainfall 0.00 in
Snow Depth Not available.
6:51 AM 5:53 PM
Waxing Crescent, 19% visible
METAR KOPL 120955Z AUTO 24003KT 1/4SM FG OVC003 13/13 A3018 RMK AO2 T01330132
Pressure 30.18 in
Visibility 0.2 miles
Clouds Overcast 300 ft
Dew Point 57 °F
Humidity 96%
Rainfall 0.00 in
Snow Depth Not available.
6:51 AM 5:53 PM
Waxing Crescent, 19% visible
METAR KOPL 120955Z AUTO 24003KT 1/4SM FG OVC003 13/13 A3018 RMK AO2 T01330132

10-Day Weather Forecast

Almanac

Astronomy

Feb. 12, 2016 Rise Set
Actual Time
Civil Twilight
Nautical Twilight
Astronomical Twilight
Moon
Length of Visible Light
Length of Day
Tomorrow will be .
, % of the Moon is Illuminated

Today's Extremes

State Highs State Lows

Community

WunderPhotos

Upload Photos

1,892,287 photos uploaded!

WunderBlog® & News

Nearby

Air Quality

  Air Quality AQ Index Pollutant
Not available.

Snow Depth

Station Depth Elevation

Earthquake Activity

City Distance Mag. Time & Date
Minimum magnitude displayed is 2.5.

Coastal Water Temperatures

Place Temperature

Stations

Nearby Weather Stations

Station Location Temp. Windchill Dew Point Humidity Wind Precip. Elev Updated Type
                   

Watches & Warnings

There are currently no watches in effect.